createdAt,value
2022-08-19T00:00:20.101Z,37.55
2022-08-19T00:02:50.062Z,37.36
2022-08-19T00:05:17.918Z,37.50
2022-08-19T00:07:45.160Z,37.83
2022-08-19T00:10:13.445Z,37.51
2022-08-19T00:12:46.989Z,37.49
2022-08-19T00:15:15.847Z,37.45
2022-08-19T00:17:43.972Z,37.50
2022-08-19T00:20:12.090Z,37.70
2022-08-19T00:22:39.841Z,38.17
2022-08-19T00:25:07.441Z,37.92
2022-08-19T00:27:34.708Z,38.27
2022-08-19T00:30:04.284Z,38.33
2022-08-19T00:32:31.471Z,38.29
2022-08-19T00:35:00.136Z,38.97
2022-08-19T00:37:27.861Z,38.99
2022-08-19T00:39:55.062Z,38.84
2022-08-19T00:42:22.690Z,38.71
2022-08-19T00:44:51.569Z,38.79
2022-08-19T00:47:18.785Z,39.12
2022-08-19T00:49:54.476Z,39.31
2022-08-19T00:52:23.994Z,38.84
2022-08-19T00:54:52.895Z,38.42
2022-08-19T00:57:21.319Z,39.21
2022-08-19T01:00:00.416Z,39.39
2022-08-19T01:02:29.536Z,38.62
2022-08-19T01:04:56.967Z,38.76
2022-08-19T01:07:24.165Z,38.80
2022-08-19T01:09:51.392Z,38.38
2022-08-19T01:12:18.861Z,38.57
2022-08-19T01:14:47.522Z,38.52
2022-08-19T01:17:14.736Z,38.12
2022-08-19T01:19:44.326Z,38.10
2022-08-19T01:22:27.360Z,38.13
2022-08-19T01:24:58.319Z,38.33
2022-08-19T01:27:26.661Z,38.29
2022-08-19T01:29:56.681Z,38.62
2022-08-19T01:32:32.446Z,38.36
2022-08-19T01:35:02.841Z,38.57
2022-08-19T01:37:31.570Z,38.60
2022-08-19T01:39:58.978Z,38.83
2022-08-19T01:42:30.075Z,38.83
2022-08-19T01:44:58.232Z,38.13
2022-08-19T01:47:25.455Z,38.41
2022-08-19T01:49:52.678Z,38.20
2022-08-19T01:52:20.537Z,38.14
2022-08-19T01:54:47.734Z,38.14
2022-08-19T01:57:14.929Z,38.11
2022-08-19T01:59:42.710Z,38.32
2022-08-19T02:02:10.185Z,38.97
2022-08-19T02:04:39.682Z,39.02
2022-08-19T02:07:07.339Z,39.13
2022-08-19T02:09:35.092Z,38.50
2022-08-19T02:12:02.585Z,38.21
2022-08-19T02:14:29.777Z,38.65
2022-08-19T02:16:57.053Z,38.53
2022-08-19T02:19:24.503Z,38.29
2022-08-19T02:21:51.668Z,38.98
2022-08-19T02:24:18.810Z,38.61
2022-08-19T02:26:46.246Z,38.77
2022-08-19T02:29:13.417Z,38.55
2022-08-19T02:31:40.595Z,38.24
2022-08-19T02:34:08.037Z,38.38
2022-08-19T02:36:35.279Z,38.32
2022-08-19T02:39:02.452Z,38.30
2022-08-19T02:41:31.622Z,38.34
2022-08-19T02:44:26.524Z,38.57
2022-08-19T02:46:47.485Z,38.54
2022-08-19T02:49:17.537Z,38.39
2022-08-19T02:51:45.442Z,38.50
2022-08-19T02:54:13.522Z,38.42
2022-08-19T02:56:41.580Z,39.18
2022-08-19T02:59:11.955Z,38.49
2022-08-19T03:01:41.686Z,38.51
2022-08-19T03:04:09.926Z,38.71
2022-08-19T03:06:38.127Z,38.65
2022-08-19T03:09:05.599Z,38.71
2022-08-19T03:11:33.072Z,38.99
2022-08-19T03:14:01.104Z,38.81
2022-08-19T03:16:29.346Z,38.81
2022-08-19T03:19:01.751Z,39.09
2022-08-19T03:21:30.731Z,39.04
2022-08-19T03:23:58.751Z,39.17
2022-08-19T03:26:26.113Z,39.07
2022-08-19T03:28:58.289Z,39.01
2022-08-19T03:31:44.389Z,39.14
2022-08-19T03:34:16.291Z,38.85
2022-08-19T03:36:43.434Z,39.18
2022-08-19T03:39:10.716Z,39.32
2022-08-19T03:41:45.343Z,39.32
2022-08-19T03:44:18.452Z,39.38
2022-08-19T03:46:50.175Z,39.27
2022-08-19T03:49:18.360Z,39.62
2022-08-19T03:51:46.729Z,39.63
2022-08-19T03:54:14.879Z,39.60
2022-08-19T03:56:42.561Z,39.80
2022-08-19T03:59:12.703Z,39.86
2022-08-19T04:01:39.885Z,39.94
2022-08-19T04:04:07.337Z,40.56
2022-08-19T04:06:38.733Z,40.74
2022-08-19T04:09:08.418Z,40.80
2022-08-19T04:11:43.984Z,40.74
2022-08-19T04:14:13.285Z,40.49
2022-08-19T04:16:40.469Z,40.38
2022-08-19T04:19:07.781Z,40.34
2022-08-19T04:21:35.268Z,40.20
2022-08-19T04:24:03.843Z,40.72
2022-08-19T04:26:35.712Z,40.61
2022-08-19T04:29:09.224Z,41.52
2022-08-19T04:31:39.061Z,41.35
2022-08-19T04:34:07.354Z,41.31
2022-08-19T04:36:35.325Z,40.78
2022-08-19T04:39:09.738Z,40.85
2022-08-19T04:41:55.861Z,40.62
2022-08-19T04:44:23.056Z,40.39
2022-08-19T04:46:51.965Z,40.06
2022-08-19T04:49:23.279Z,40.21
2022-08-19T04:51:52.307Z,40.46
2022-08-19T04:54:33.774Z,40.46
2022-08-19T04:57:07.665Z,40.56
2022-08-19T04:59:36.127Z,40.99
2022-08-19T05:02:04.119Z,40.83
2022-08-19T05:04:33.215Z,40.60
2022-08-19T05:07:01.946Z,40.73
2022-08-19T05:09:42.124Z,40.98
2022-08-19T05:12:17.901Z,40.99
2022-08-19T05:14:46.586Z,41.06
2022-08-19T05:17:33.556Z,41.26
2022-08-19T05:20:20.536Z,41.16
2022-08-19T05:22:48.031Z,40.34
2022-08-19T05:25:19.570Z,40.78
2022-08-19T05:27:47.041Z,41.02
2022-08-19T05:30:14.237Z,41.03
2022-08-19T05:32:41.868Z,40.90
2022-08-19T05:35:09.306Z,41.13
2022-08-19T05:37:36.533Z,40.49
2022-08-19T05:40:04.595Z,40.48
2022-08-19T05:42:31.937Z,40.76
2022-08-19T05:44:59.134Z,40.00
2022-08-19T05:47:26.623Z,39.76
2022-08-19T05:49:53.832Z,39.94
2022-08-19T05:52:25.869Z,39.69
2022-08-19T05:54:57.185Z,39.71
2022-08-19T05:57:25.003Z,39.83
2022-08-19T05:59:58.330Z,39.91
2022-08-19T06:02:27.936Z,40.08
2022-08-19T06:04:55.702Z,39.73
2022-08-19T06:07:23.004Z,39.37
2022-08-19T06:09:59.181Z,39.02
2022-08-19T06:12:34.144Z,39.27
2022-08-19T06:15:05.210Z,38.53
2022-08-19T06:17:32.773Z,38.96
2022-08-19T06:20:00.419Z,40.95
2022-08-19T06:22:28.225Z,39.91
2022-08-19T06:24:56.425Z,38.78
2022-08-19T06:27:23.876Z,38.48
2022-08-19T06:29:51.165Z,37.78
2022-08-19T06:32:19.744Z,38.35
2022-08-19T06:34:47.054Z,37.79
2022-08-19T06:37:14.526Z,37.99
2022-08-19T06:39:42.868Z,37.81
2022-08-19T06:42:12.654Z,37.09
2022-08-19T06:44:43.351Z,36.67
2022-08-19T06:47:14.859Z,36.36
2022-08-19T06:49:51.313Z,36.46
2022-08-19T06:52:18.752Z,35.36
2022-08-19T06:54:55.504Z,35.16
2022-08-19T06:57:25.086Z,34.89
2022-08-19T06:59:52.538Z,34.43
2022-08-19T07:02:20.495Z,34.33
2022-08-19T07:04:48.154Z,34.37
2022-08-19T07:07:21.848Z,34.09
2022-08-19T07:09:54.404Z,33.83
2022-08-19T07:12:35.646Z,33.07
2022-08-19T07:15:04.794Z,32.53
2022-08-19T07:17:34.647Z,32.66
2022-08-19T07:20:05.124Z,32.87
2022-08-19T07:22:35.021Z,32.71
2022-08-19T07:25:04.862Z,32.04
2022-08-19T07:27:33.673Z,32.00
2022-08-19T07:30:01.330Z,31.74
2022-08-19T07:32:28.615Z,32.19
2022-08-19T07:34:56.622Z,31.61
2022-08-19T07:37:28.340Z,32.19
2022-08-19T07:39:58.671Z,31.13
2022-08-19T07:42:26.582Z,29.74
2022-08-19T07:44:53.752Z,30.17
2022-08-19T07:47:49.529Z,29.95
2022-08-19T07:50:10.203Z,30.04
2022-08-19T07:52:39.633Z,30.23
2022-08-19T07:55:08.089Z,29.34
2022-08-19T07:57:55.979Z,28.84
2022-08-19T08:00:24.638Z,28.34
2022-08-19T08:02:55.645Z,29.25
2022-08-19T08:05:43.867Z,28.20
2022-08-19T08:08:30.698Z,29.67
2022-08-19T08:10:57.923Z,28.00
2022-08-19T08:13:25.634Z,29.17
2022-08-19T08:15:56.028Z,27.87
2022-08-19T08:18:27.913Z,28.16
2022-08-19T08:20:56.138Z,27.05
2022-08-19T08:23:23.554Z,28.22
2022-08-19T08:25:50.744Z,27.32
2022-08-19T08:28:18.546Z,27.79
2022-08-19T08:30:49.138Z,27.65
2022-08-19T08:33:18.751Z,27.72
2022-08-19T08:36:00.628Z,26.59
2022-08-19T08:38:29.905Z,26.00
2022-08-19T08:41:10.617Z,25.19
2022-08-19T08:43:38.587Z,24.96
2022-08-19T08:46:07.509Z,24.43
2022-08-19T08:48:40.480Z,24.75
2022-08-19T08:51:12.604Z,24.02
2022-08-19T08:53:41.968Z,24.33
2022-08-19T08:56:13.488Z,24.43
2022-08-19T08:58:44.916Z,23.69
2022-08-19T09:01:12.762Z,24.08
2022-08-19T09:03:43.182Z,23.45
2022-08-19T09:06:17.461Z,23.41
2022-08-19T09:08:50.213Z,24.42
2022-08-19T09:11:43.013Z,23.21
2022-08-19T09:14:34.928Z,24.37
2022-08-19T09:17:08.587Z,23.44
2022-08-19T09:19:56.304Z,23.40
2022-08-19T09:22:26.100Z,23.46
2022-08-19T09:24:55.302Z,22.44
2022-08-19T09:27:41.896Z,22.25
2022-08-19T09:30:18.434Z,22.86
2022-08-19T09:32:46.555Z,24.20
2022-08-19T09:35:14.419Z,22.21
2022-08-19T09:37:42.000Z,23.16
2022-08-19T09:40:11.962Z,22.39
2022-08-19T09:42:39.639Z,23.04
2022-08-19T09:45:18.843Z,22.17
2022-08-19T09:47:46.305Z,22.19
2022-08-19T09:50:16.641Z,22.62
2022-08-19T09:52:55.134Z,23.02
2022-08-19T09:55:31.080Z,24.03
2022-08-19T09:58:01.911Z,22.16
2022-08-19T10:00:30.030Z,22.61
2022-08-19T10:02:58.015Z,23.33
2022-08-19T10:05:44.067Z,22.50
2022-08-19T10:08:13.705Z,22.70
2022-08-19T10:10:46.755Z,22.30
2022-08-19T10:13:19.658Z,23.05
2022-08-19T10:15:48.180Z,22.36
2022-08-19T10:18:19.308Z,21.41
2022-08-19T10:20:51.309Z,23.31
2022-08-19T10:23:21.145Z,22.57
2022-08-19T10:25:48.866Z,21.82
2022-08-19T10:28:16.213Z,21.03
2022-08-19T10:30:55.188Z,21.67
2022-08-19T10:33:38.608Z,21.92
2022-08-19T10:36:11.825Z,21.68
2022-08-19T10:38:39.114Z,21.00
2022-08-19T10:41:20.485Z,23.19
2022-08-19T10:43:48.699Z,20.99
2022-08-19T10:46:16.799Z,20.81
2022-08-19T10:48:44.616Z,21.93
2022-08-19T10:51:30.940Z,20.81
2022-08-19T10:53:59.209Z,22.16
2022-08-19T10:56:45.549Z,20.30
2022-08-19T10:59:16.293Z,20.66
2022-08-19T11:01:44.294Z,20.26
2022-08-19T11:04:12.265Z,20.41
2022-08-19T11:06:39.843Z,19.65
2022-08-19T11:09:07.310Z,21.17
2022-08-19T11:11:40.470Z,19.64
2022-08-19T11:14:09.070Z,20.13
2022-08-19T11:16:36.258Z,20.46
2022-08-19T11:19:03.657Z,19.49
2022-08-19T11:21:33.236Z,20.97
2022-08-19T11:24:02.291Z,20.12
2022-08-19T11:26:30.437Z,19.69
2022-08-19T11:28:58.490Z,18.67
2022-08-19T11:31:28.967Z,19.18
2022-08-19T11:33:57.420Z,19.42
2022-08-19T11:36:24.948Z,18.96
2022-08-19T11:38:52.172Z,19.85
2022-08-19T11:41:20.775Z,19.48
2022-08-19T11:43:48.326Z,20.09
2022-08-19T11:46:15.994Z,19.69
2022-08-19T11:48:43.390Z,19.30
2022-08-19T11:51:13.118Z,20.19
2022-08-19T11:53:40.381Z,19.62
2022-08-19T11:56:07.942Z,20.15
2022-08-19T11:58:35.734Z,20.25
2022-08-19T12:01:06.430Z,20.07
2022-08-19T12:03:34.958Z,20.19
2022-08-19T12:06:06.395Z,20.88
2022-08-19T12:08:34.189Z,20.03
2022-08-19T12:11:02.526Z,20.88
2022-08-19T12:13:31.085Z,20.89
2022-08-19T12:15:59.453Z,21.31
2022-08-19T12:18:26.768Z,21.38
2022-08-19T12:20:55.623Z,20.35
2022-08-19T12:23:24.091Z,20.55
2022-08-19T12:25:52.656Z,20.62
2022-08-19T12:28:20.956Z,21.29
2022-08-19T12:30:49.151Z,20.75
2022-08-19T12:33:18.018Z,20.51
2022-08-19T12:35:47.639Z,21.92
2022-08-19T12:38:15.648Z,20.94
2022-08-19T12:40:43.031Z,20.60
2022-08-19T12:43:10.630Z,20.10
2022-08-19T12:45:38.643Z,21.72
2022-08-19T12:48:33.843Z,20.33
2022-08-19T12:50:55.656Z,21.63
2022-08-19T12:53:23.212Z,20.14
2022-08-19T12:55:56.926Z,20.57
2022-08-19T12:58:27.310Z,19.97
2022-08-19T13:00:54.922Z,19.27
2022-08-19T13:03:23.599Z,20.10
2022-08-19T13:05:51.500Z,20.07
2022-08-19T13:08:18.678Z,20.38
2022-08-19T13:10:46.024Z,20.12
2022-08-19T13:13:13.538Z,19.68
2022-08-19T13:15:41.469Z,19.63
2022-08-19T13:18:10.091Z,20.42
2022-08-19T13:20:37.967Z,19.78
2022-08-19T13:23:05.708Z,20.22
2022-08-19T13:25:33.273Z,20.60
2022-08-19T13:28:00.956Z,20.70
2022-08-19T13:30:47.054Z,20.70
2022-08-19T13:33:16.610Z,20.90
2022-08-19T13:35:45.245Z,21.67
2022-08-19T13:38:12.857Z,23.35
2022-08-19T13:40:41.347Z,24.39
2022-08-19T13:43:17.433Z,24.57
2022-08-19T13:45:50.950Z,24.38
2022-08-19T13:48:19.735Z,25.36
2022-08-19T13:50:48.375Z,26.06
2022-08-19T13:53:16.270Z,25.57
2022-08-19T13:55:43.821Z,25.92
2022-08-19T13:58:11.713Z,25.86
2022-08-19T14:00:40.332Z,26.33
2022-08-19T14:03:09.408Z,26.71
2022-08-19T14:05:37.207Z,27.33
2022-08-19T14:08:04.616Z,26.88
2022-08-19T14:10:32.957Z,28.66
2022-08-19T14:13:01.228Z,27.09
2022-08-19T14:15:29.673Z,26.76
2022-08-19T14:17:58.587Z,25.83
2022-08-19T14:20:26.472Z,25.94
2022-08-19T14:22:54.002Z,26.45
2022-08-19T14:25:22.697Z,26.43
2022-08-19T14:27:51.102Z,27.05
2022-08-19T14:30:19.736Z,26.54
2022-08-19T14:32:47.521Z,24.58
2022-08-19T14:35:16.257Z,24.08
2022-08-19T14:37:46.195Z,24.69
2022-08-19T14:40:16.046Z,23.24
2022-08-19T14:42:46.433Z,23.35
2022-08-19T14:45:14.444Z,22.89
2022-08-19T14:47:42.705Z,23.16
2022-08-19T14:50:17.866Z,23.95
2022-08-19T14:52:46.573Z,24.08
2022-08-19T14:55:13.791Z,23.52
2022-08-19T14:57:44.125Z,24.41
2022-08-19T15:00:14.789Z,23.08
2022-08-19T15:02:42.381Z,23.24
2022-08-19T15:05:09.667Z,23.49
2022-08-19T15:07:42.019Z,23.45
2022-08-19T15:10:10.557Z,23.62
2022-08-19T15:12:39.423Z,24.09
2022-08-19T15:15:07.600Z,23.92
2022-08-19T15:17:45.337Z,23.75
2022-08-19T15:20:23.764Z,24.53
2022-08-19T15:22:51.138Z,24.12
2022-08-19T15:25:19.881Z,23.34
2022-08-19T15:27:49.356Z,23.74
2022-08-19T15:30:20.209Z,23.33
2022-08-19T15:32:49.163Z,23.22
2022-08-19T15:35:16.614Z,23.69
2022-08-19T15:37:44.595Z,23.64
2022-08-19T15:40:12.417Z,23.34
2022-08-19T15:42:42.361Z,23.67
2022-08-19T15:45:10.238Z,24.46
2022-08-19T15:47:39.059Z,24.26
2022-08-19T15:50:32.632Z,24.77
2022-08-19T15:53:03.435Z,24.76
2022-08-19T15:55:34.680Z,24.85
2022-08-19T15:58:28.469Z,25.08
2022-08-19T16:01:20.852Z,25.18
2022-08-19T16:04:13.718Z,25.47
2022-08-19T16:06:44.491Z,25.67
2022-08-19T16:09:13.102Z,25.84
2022-08-19T16:11:45.624Z,26.45
2022-08-19T16:14:14.667Z,26.24
2022-08-19T16:16:41.899Z,26.09
2022-08-19T16:19:10.660Z,25.82
2022-08-19T16:21:41.838Z,26.29
2022-08-19T16:24:10.585Z,26.46
2022-08-19T16:26:37.845Z,26.21
2022-08-19T16:29:08.855Z,26.06
2022-08-19T16:31:39.939Z,25.84
2022-08-19T16:34:07.444Z,26.27
2022-08-19T16:36:34.623Z,27.05
2022-08-19T16:39:01.842Z,27.97
2022-08-19T16:41:29.338Z,29.14
2022-08-19T16:43:56.544Z,28.60
2022-08-19T16:46:27.109Z,27.89
2022-08-19T16:48:54.709Z,27.65
2022-08-19T16:51:22.951Z,27.97
2022-08-19T16:53:52.702Z,30.13
2022-08-19T16:56:21.237Z,28.52
2022-08-19T16:58:50.199Z,29.55
2022-08-19T17:01:17.726Z,29.57
2022-08-19T17:03:45.212Z,29.39
2022-08-19T17:06:18.440Z,29.87
2022-08-19T17:08:49.903Z,29.53
2022-08-19T17:11:20.185Z,28.98
2022-08-19T17:13:48.406Z,29.75
2022-08-19T17:16:17.039Z,29.75
2022-08-19T17:18:44.286Z,29.29
2022-08-19T17:21:13.281Z,30.98
2022-08-19T17:23:43.689Z,34.04
2022-08-19T17:26:18.380Z,34.69
2022-08-19T17:28:49.088Z,36.52
2022-08-19T17:31:16.636Z,36.23
2022-08-19T17:33:48.604Z,37.25
2022-08-19T17:36:19.727Z,37.01
2022-08-19T17:38:46.961Z,34.72
2022-08-19T17:41:14.342Z,36.57
2022-08-19T17:43:43.749Z,37.01
2022-08-19T17:46:17.641Z,35.88
2022-08-19T17:48:51.804Z,35.85
2022-08-19T17:51:22.029Z,32.79
2022-08-19T17:53:50.841Z,34.55
2022-08-19T17:56:18.524Z,31.73
2022-08-19T17:58:57.645Z,32.83
2022-08-19T18:01:50.638Z,31.20
2022-08-19T18:04:28.217Z,34.87
2022-08-19T18:06:57.075Z,40.98
2022-08-19T18:09:28.766Z,43.83
2022-08-19T18:12:06.155Z,43.68
2022-08-19T18:14:35.019Z,46.10
2022-08-19T18:17:05.876Z,42.81
2022-08-19T18:19:42.101Z,42.48
2022-08-19T18:22:35.455Z,42.48
2022-08-19T18:25:08.117Z,43.72
2022-08-19T18:27:35.562Z,45.87
2022-08-19T18:30:03.829Z,45.30
2022-08-19T18:32:34.380Z,44.93
2022-08-19T18:35:02.194Z,45.89
2022-08-19T18:37:29.388Z,48.23
2022-08-19T18:40:15.407Z,49.07
2022-08-19T18:43:04.560Z,50.76
2022-08-19T18:45:50.359Z,51.69
2022-08-19T18:48:36.758Z,51.98
2022-08-19T18:51:03.994Z,53.07
2022-08-19T18:53:32.318Z,57.87
2022-08-19T18:55:59.891Z,58.34
2022-08-19T18:58:32.416Z,56.13
2022-08-19T19:01:00.812Z,56.65
2022-08-19T19:03:28.031Z,57.57
2022-08-19T19:05:55.317Z,55.51
2022-08-19T19:08:27.091Z,56.16
2022-08-19T19:10:55.794Z,56.70
2022-08-19T19:13:23.292Z,56.41
2022-08-19T19:15:50.498Z,55.73
2022-08-19T19:18:18.030Z,55.71
2022-08-19T19:20:45.537Z,56.97
2022-08-19T19:23:15.852Z,56.27
2022-08-19T19:25:49.771Z,56.75
2022-08-19T19:28:25.819Z,56.77
2022-08-19T19:30:57.489Z,57.49
2022-08-19T19:33:26.086Z,56.40
2022-08-19T19:35:53.908Z,58.82
2022-08-19T19:38:22.703Z,57.53
2022-08-19T19:40:54.830Z,58.10
2022-08-19T19:43:22.239Z,57.26
2022-08-19T19:45:49.785Z,60.18
2022-08-19T19:48:17.051Z,56.83
2022-08-19T19:50:44.612Z,58.27
2022-08-19T19:53:15.123Z,58.11
2022-08-19T19:55:42.524Z,58.07
2022-08-19T19:58:09.724Z,57.64
2022-08-19T20:00:37.224Z,57.13
2022-08-19T20:03:04.960Z,58.00
2022-08-19T20:05:32.189Z,57.72
2022-08-19T20:08:19.002Z,57.09
2022-08-19T20:10:46.947Z,58.83
2022-08-19T20:13:16.956Z,59.17
2022-08-19T20:15:44.200Z,58.38
2022-08-19T20:18:13.404Z,58.93
2022-08-19T20:20:40.897Z,60.32
2022-08-19T20:23:08.523Z,62.89
2022-08-19T20:25:38.084Z,63.87
2022-08-19T20:28:05.770Z,65.90
2022-08-19T20:30:33.578Z,64.04
2022-08-19T20:33:07.052Z,64.75
2022-08-19T20:35:36.389Z,68.08
2022-08-19T20:38:04.888Z,66.08
2022-08-19T20:40:34.165Z,65.88
2022-08-19T20:43:02.489Z,66.65
2022-08-19T20:45:33.631Z,66.43
2022-08-19T20:48:02.846Z,65.99
2022-08-19T20:50:32.182Z,65.55
2022-08-19T20:53:09.680Z,64.25
2022-08-19T20:55:37.262Z,64.22
2022-08-19T20:58:04.507Z,63.41
2022-08-19T21:00:31.692Z,64.16
2022-08-19T21:02:59.215Z,63.10
2022-08-19T21:05:30.450Z,63.63
2022-08-19T21:07:58.148Z,63.08
2022-08-19T21:10:26.392Z,62.63
2022-08-19T21:12:53.634Z,62.01
2022-08-19T21:15:21.165Z,62.56
2022-08-19T21:17:48.851Z,62.07
2022-08-19T21:20:16.125Z,61.69
2022-08-19T21:22:43.289Z,62.01
2022-08-19T21:25:10.975Z,61.63
2022-08-19T21:27:38.323Z,61.17
2022-08-19T21:30:05.833Z,61.64
2022-08-19T21:32:33.322Z,62.02
2022-08-19T21:35:02.133Z,60.74
2022-08-19T21:37:29.736Z,61.23
2022-08-19T21:39:57.781Z,59.91
2022-08-19T21:42:25.460Z,60.98
2022-08-19T21:44:52.693Z,60.61
2022-08-19T21:47:20.359Z,60.77
2022-08-19T21:49:47.819Z,61.70
2022-08-19T21:52:20.625Z,62.37
2022-08-19T21:54:48.092Z,62.44
2022-08-19T21:57:15.436Z,61.58
2022-08-19T21:59:44.162Z,61.26
2022-08-19T22:02:20.395Z,61.06
2022-08-19T22:04:52.353Z,60.73
2022-08-19T22:07:20.334Z,61.37
2022-08-19T22:09:47.822Z,61.58
2022-08-19T22:12:23.324Z,61.64
2022-08-19T22:14:51.741Z,61.24
2022-08-19T22:17:20.076Z,61.24
2022-08-19T22:19:47.663Z,61.57
2022-08-19T22:22:22.201Z,62.81
2022-08-19T22:24:50.157Z,67.11
2022-08-19T22:27:17.453Z,64.92
2022-08-19T22:29:44.628Z,63.39
2022-08-19T22:32:27.015Z,63.07
2022-08-19T22:34:57.542Z,61.64
2022-08-19T22:37:25.411Z,61.42
2022-08-19T22:39:53.314Z,61.71
2022-08-19T22:42:20.870Z,62.30
2022-08-19T22:44:48.828Z,62.51
2022-08-19T22:47:20.534Z,62.59
2022-08-19T22:49:48.240Z,62.46
2022-08-19T22:52:19.045Z,61.96
2022-08-19T22:54:47.118Z,62.12
2022-08-19T22:57:14.682Z,62.42
2022-08-19T22:59:42.166Z,63.66
2022-08-19T23:02:09.475Z,63.34
2022-08-19T23:04:36.925Z,61.78
2022-08-19T23:07:05.444Z,62.54
2022-08-19T23:09:32.926Z,62.38
2022-08-19T23:12:00.762Z,61.08
2022-08-19T23:14:28.280Z,61.23
2022-08-19T23:16:58.836Z,60.93
2022-08-19T23:19:26.932Z,60.64
2022-08-19T23:21:54.199Z,61.58
2022-08-19T23:24:21.641Z,61.97
2022-08-19T23:27:07.798Z,61.64
2022-08-19T23:29:53.810Z,61.35
2022-08-19T23:32:21.466Z,61.11
2022-08-19T23:34:48.652Z,60.36
2022-08-19T23:37:16.095Z,60.49
2022-08-19T23:39:43.643Z,59.62
2022-08-19T23:42:12.848Z,60.34
2022-08-19T23:44:51.255Z,60.28
2022-08-19T23:47:21.451Z,60.71
2022-08-19T23:49:48.990Z,60.65
2022-08-19T23:52:16.172Z,60.81
2022-08-19T23:54:44.109Z,61.19
2022-08-19T23:57:14.725Z,61.37
2022-08-19T23:59:42.803Z,61.75
